Hiram, Arkansas
Current Conditions -  °F | °C
As of 12:56 PM on Sunday 23 Nov 2014 (Local Time) from KSRC Reporting Station
Light Rain Light Rain  
Wind Chill: 59°   Ceiling: 400
Heat Index: 59°   Visibility: 10mi
Dew Point: 58°   Wind: 6mph
Humidity: 96%   Direction: 130°SE
Pressure: 29.42"   Gusts: NA
Location:  35.4452°N, 91.9033°W
Report Text: KSRC 231856Z AUTO 13005KT 10SM -RA OVC004 15/14 A2942 RMK AO2 SLP967 P0002 T01500144 TSNO
Loading
Personal Weather Stations






























Interactive Weather Map New forecast layout! Learn more

10-Day Weather Forecast

Advertisements
Track Severe Weather on mobile